Time;durP1;ratioP1;P1;durP2;ratioP2;P2;SDS_P1;SDS_P2;PMS_P1;PMS_P2;Temp;Humidity;BMP_temperature;BMP_pressure;BME280_temperature;BME280_humidity;BME280_pressure;Samples;Min_cycle;Max_cycle;Signal;HPM_P1;HPM_P2
2022/06/09 00:00:11;;;;;;;49.03;18.70;;;14.40;99.90;;;;;;4904665;29;20056;-94
2022/06/09 00:02:36;;;;;;;64.03;20.85;;;14.40;99.90;;;;;;4904539;29;20515;-92
2022/06/09 00:05:04;;;;;;;55.38;19.65;;;14.40;99.90;;;;;;4888755;29;20056;-95
2022/06/09 00:07:29;;;;;;;56.58;19.83;;;14.40;99.90;;;;;;4921146;29;20063;-93
2022/06/09 00:09:59;;;;;;;49.47;19.70;;;16.20;99.90;;;;;;4919484;29;20047;-92
2022/06/09 00:12:25;;;;;;;55.67;19.80;;;14.50;99.90;;;;;;4904337;29;20067;-94
2022/06/09 00:14:50;;;;;;;52.83;20.42;;;14.40;99.90;;;;;;4904357;29;20048;-93
2022/06/09 00:17:16;;;;;;;55.63;19.52;;;14.40;99.90;;;;;;4893873;29;20052;-92
2022/06/09 00:19:42;;;;;;;45.58;17.98;;;14.40;99.90;;;;;;4909538;29;20019;-92
2022/06/09 00:22:08;;;;;;;41.50;17.08;;;14.40;99.90;;;;;;4972961;28;20055;-92
2022/06/09 00:24:33;;;;;;;55.72;18.25;;;14.40;99.90;;;;;;4924203;29;20059;-93
2022/06/09 00:26:59;;;;;;;60.53;18.50;;;14.40;99.90;;;;;;4922596;29;20055;-92
2022/06/09 00:29:25;;;;;;;48.90;18.08;;;14.40;99.90;;;;;;4916508;29;20142;-92
2022/06/09 00:31:50;;;;;;;53.80;17.20;;;14.30;99.90;;;;;;4896038;29;20086;-89
2022/06/09 00:34:16;;;;;;;48.55;18.75;;;14.30;99.90;;;;;;4937705;29;20044;-92
2022/06/09 00:36:42;;;;;;;65.63;19.98;;;14.30;99.90;;;;;;4938054;29;20051;-95
2022/06/09 00:39:10;;;;;;;52.85;19.13;;;14.30;99.90;;;;;;4893459;29;20461;-95
2022/06/09 00:41:40;;;;;;;48.20;17.73;;;14.40;99.90;;;;;;4924742;29;20052;-92
2022/06/09 00:44:30;;;;;;;60.80;18.65;;;14.40;99.90;;;;;;4919738;29;20124;-92
2022/06/09 00:47:02;;;;;;;61.30;18.90;;;14.40;99.90;;;;;;4897710;29;20107;-91
2022/06/09 00:49:34;;;;;;;61.13;18.45;;;14.30;99.90;;;;;;4910262;29;20106;-92
2022/06/09 00:52:01;;;;;;;49.33;17.50;;;14.30;99.90;;;;;;4889070;29;20059;-92
2022/06/09 00:54:34;;;;;;;56.97;17.65;;;14.30;99.90;;;;;;4951532;28;20092;-95
2022/06/09 00:57:10;;;;;;;52.90;18.55;;;14.30;99.90;;;;;;4902468;29;20052;-93
2022/06/09 00:59:35;;;;;;;61.58;19.00;;;14.30;99.90;;;;;;4888004;29;20142;-93
2022/06/09 01:02:06;;;;;;;54.88;19.33;;;14.20;99.90;;;;;;4887885;29;20138;-92
2022/06/09 01:04:34;;;;;;;55.75;19.05;;;14.20;99.90;;;;;;4913964;29;20147;-92
2022/06/09 01:07:16;;;;;;;54.38;17.92;;;14.20;99.90;;;;;;4883566;29;20134;-93
2022/06/09 01:09:42;;;;;;;56.10;19.38;;;12.60;99.90;;;;;;4919234;29;20055;-92
2022/06/09 01:12:31;;;;;;;50.72;19.05;;;14.20;99.90;;;;;;4934828;29;20489;-91
2022/06/09 01:15:02;;;;;;;56.50;20.92;;;14.20;99.90;;;;;;4919904;29;20051;-93
2022/06/09 01:18:02;;;;;;;55.67;21.15;;;14.20;99.90;;;;;;4919574;29;20052;-91
2022/06/09 01:20:49;;;;;;;42.47;19.95;;;14.20;99.90;;;;;;4918876;29;20088;-91
2022/06/09 01:23:52;;;;;;;63.30;21.83;;;14.20;99.90;;;;;;4918918;29;20051;-91
2022/06/09 01:26:37;;;;;;;58.38;20.88;;;14.30;99.90;;;;;;4918782;29;20043;-93
2022/06/09 01:29:21;;;;;;;59.25;22.65;;;14.30;99.90;;;;;;4950896;28;20408;-91
2022/06/09 01:31:48;;;;;;;71.35;23.50;;;14.30;99.90;;;;;;4926410;29;20123;-91
2022/06/09 01:34:37;;;;;;;65.10;23.23;;;14.30;99.90;;;;;;4947902;29;20047;-90
2022/06/09 01:37:17;;;;;;;60.33;21.35;;;14.30;99.90;;;;;;4966174;28;20111;-91
2022/06/09 01:39:50;;;;;;;61.30;22.45;;;14.30;99.90;;;;;;4961709;29;20080;-92
2022/06/09 01:42:27;;;;;;;67.07;22.25;;;14.30;99.90;;;;;;4903801;29;20060;-92
2022/06/09 01:44:55;;;;;;;64.95;21.98;;;14.20;99.90;;;;;;4935348;29;20082;-93
2022/06/09 01:47:22;;;;;;;62.33;22.35;;;14.30;99.90;;;;;;4922024;29;20586;-91
2022/06/09 01:49:49;;;;;;;60.20;20.90;;;14.30;99.90;;;;;;4918176;29;20109;-90
2022/06/09 01:52:14;;;;;;;63.33;22.80;;;14.30;99.90;;;;;;4902251;29;20114;-91
2022/06/09 01:54:43;;;;;;;64.25;21.73;;;14.30;99.90;;;;;;4934047;29;20067;-94
2022/06/09 01:57:17;;;;;;;59.83;21.70;;;14.30;99.90;;;;;;4918211;29;20385;-93
2022/06/09 01:59:50;;;;;;;;;;;14.20;99.90;;;;;;4934932;29;20058;-94
2022/06/09 02:02:22;;;;;;;60.45;20.25;;;14.30;99.90;;;;;;4950194;29;20327;-91
2022/06/09 02:04:59;;;;;;;65.35;21.63;;;14.20;99.90;;;;;;4950320;28;20063;-94
2022/06/09 02:07:26;;;;;;;69.18;22.35;;;14.20;99.90;;;;;;4934561;29;20110;-92
2022/06/09 02:09:52;;;;;;;59.00;22.90;;;14.10;99.90;;;;;;4949561;29;20055;-93
2022/06/09 02:12:26;;;;;;;64.63;23.65;;;14.10;99.90;;;;;;5129524;27;20437;-91
2022/06/09 02:14:58;;;;;;;60.40;22.25;;;14.10;99.90;;;;;;5094524;28;20055;-89
2022/06/09 02:17:23;;;;;;;67.10;23.40;;;13.90;99.90;;;;;;5112279;27;20056;-88
2022/06/09 02:19:49;;;;;;;68.97;24.88;;;14.00;99.90;;;;;;5110919;28;20039;-90
2022/06/09 02:22:15;;;;;;;63.17;21.25;;;13.90;99.90;;;;;;5094781;28;20536;-93
2022/06/09 02:24:40;;;;;;;70.32;24.05;;;13.90;99.90;;;;;;5077719;28;20506;-89
2022/06/09 02:27:06;;;;;;;65.50;23.48;;;13.90;99.90;;;;;;5128357;28;20058;-91
2022/06/09 02:29:32;;;;;;;68.45;24.77;;;13.80;99.90;;;;;;5111715;28;20043;-90
2022/06/09 02:31:58;;;;;;;68.40;26.73;;;13.80;99.90;;;;;;5077219;28;20035;-90
2022/06/09 02:34:24;;;;;;;59.55;23.40;;;13.80;99.90;;;;;;5094744;28;20051;-91
2022/06/09 02:36:49;;;;;;;70.45;25.20;;;13.80;99.90;;;;;;5094345;28;20539;-92
2022/06/09 02:39:15;;;;;;;71.72;26.05;;;13.80;99.90;;;;;;5094426;28;20395;-90
2022/06/09 02:41:41;;;;;;;64.00;24.65;;;13.80;99.90;;;;;;5107601;28;20164;-89
2022/06/09 02:44:06;;;;;;;59.35;24.05;;;13.80;99.90;;;;;;5112362;28;20073;-89
2022/06/09 02:46:32;;;;;;;75.22;27.02;;;14.00;99.90;;;;;;5132293;28;20106;-90
2022/06/09 02:48:59;;;;;;;59.05;24.77;;;13.80;99.90;;;;;;5115411;28;20071;-89
2022/06/09 02:51:33;;;;;;;67.28;25.90;;;13.80;99.90;;;;;;5128727;28;20099;-90
2022/06/09 02:54:02;;;;;;;67.75;23.77;;;13.90;99.90;;;;;;5089810;28;20135;-89
2022/06/09 02:56:29;;;;;;;66.88;25.80;;;13.90;99.90;;;;;;5116588;27;20052;-91
2022/06/09 02:58:56;;;;;;;68.45;25.25;;;13.80;99.90;;;;;;5079165;28;20059;-92
2022/06/09 03:01:23;;;;;;;68.32;25.88;;;13.90;99.90;;;;;;5113196;28;20054;-89
2022/06/09 03:03:48;;;;;;;64.28;25.05;;;13.90;99.90;;;;;;5112264;28;20052;-90
2022/06/09 03:06:14;;;;;;;57.92;22.75;;;13.90;99.90;;;;;;5078377;28;20054;-88
2022/06/09 03:08:40;;;;;;;72.88;24.38;;;13.90;99.90;;;;;;5078132;28;20047;-91
2022/06/09 03:11:06;;;;;;;73.22;25.48;;;13.90;99.90;;;;;;5093804;28;20055;-91
2022/06/09 03:13:32;;;;;;;72.35;26.15;;;13.90;99.90;;;;;;5095839;28;20055;-90
2022/06/09 03:15:58;;;;;;;76.05;25.63;;;13.90;99.90;;;;;;5077506;28;20449;-91
2022/06/09 03:18:23;;;;;;;61.67;24.40;;;13.90;99.90;;;;;;5111612;28;20055;-90
2022/06/09 03:20:52;;;;;;;73.20;26.67;;;13.90;99.90;;;;;;5077361;28;20051;-90
2022/06/09 03:23:17;;;;;;;66.28;27.92;;;13.90;99.90;;;;;;5101080;28;20456;-91
2022/06/09 03:25:43;;;;;;;75.07;28.75;;;13.10;99.90;;;;;;5097540;28;20103;-88
2022/06/09 03:28:09;;;;;;;62.30;27.15;;;13.80;99.90;;;;;;5114010;28;20127;-89
2022/06/09 03:30:35;;;;;;;67.85;27.15;;;13.80;99.90;;;;;;5097453;28;20411;-90
2022/06/09 03:33:01;;;;;;;65.65;28.08;;;13.80;99.90;;;;;;5080117;28;20134;-90
2022/06/09 03:35:27;;;;;;;69.32;28.30;;;13.80;99.90;;;;;;5097417;28;20051;-92
2022/06/09 03:37:52;;;;;;;73.75;27.55;;;13.90;99.90;;;;;;5079758;28;20066;-87
2022/06/09 03:40:19;;;;;;;65.10;27.45;;;13.80;99.90;;;;;;5096801;28;20124;-90
2022/06/09 03:42:45;;;;;;;63.38;26.27;;;13.80;99.90;;;;;;5096555;28;20058;-89
2022/06/09 03:45:11;;;;;;;60.42;26.70;;;13.80;99.90;;;;;;5079045;28;20047;-88
2022/06/09 03:47:37;;;;;;;51.83;25.67;;;13.90;99.90;;;;;;5113124;28;20139;-90
2022/06/09 03:50:03;;;;;;;57.50;27.63;;;13.80;99.90;;;;;;5096330;28;20074;-91
2022/06/09 03:52:32;;;;;;;58.30;25.67;;;13.80;99.90;;;;;;5080281;28;20051;-90
2022/06/09 03:54:57;;;;;;;52.85;24.67;;;13.80;99.90;;;;;;5096624;28;20380;-90
2022/06/09 03:57:23;;;;;;;52.95;22.90;;;13.70;99.90;;;;;;5096395;28;20035;-90
2022/06/09 03:59:49;;;;;;;52.03;23.95;;;13.80;99.90;;;;;;5096062;28;20051;-89
2022/06/09 04:02:14;;;;;;;54.35;22.75;;;13.70;99.90;;;;;;5079278;28;20066;-91
2022/06/09 04:04:40;;;;;;;45.95;21.83;;;13.70;99.90;;;;;;5061956;28;20108;-89
2022/06/09 04:07:06;;;;;;;40.70;20.17;;;13.70;99.90;;;;;;5078221;28;20047;-92
2022/06/09 04:09:36;;;;;;;41.47;19.85;;;13.80;99.90;;;;;;5095838;28;20134;-92
2022/06/09 04:12:02;;;;;;;42.38;20.05;;;13.80;99.90;;;;;;5096260;28;20130;-90
2022/06/09 04:14:27;;;;;;;43.67;18.13;;;13.80;99.90;;;;;;5078884;28;20135;-91
2022/06/09 04:16:55;;;;;;;44.53;19.02;;;13.80;99.90;;;;;;5096590;28;20055;-89
2022/06/09 04:19:22;;;;;;;43.38;18.88;;;13.80;99.90;;;;;;5062955;28;20432;-91
2022/06/09 04:21:47;;;;;;;40.50;17.65;;;13.70;99.90;;;;;;5079529;28;20058;-90
2022/06/09 04:24:15;;;;;;;36.97;15.90;;;13.70;99.90;;;;;;5062673;28;20055;-90
2022/06/09 04:26:41;;;;;;;34.17;17.27;;;13.70;99.90;;;;;;5062619;28;20453;-89
2022/06/09 04:29:07;;;;;;;40.95;16.50;;;13.80;99.90;;;;;;5062299;28;20051;-88
2022/06/09 04:31:34;;;;;;;32.17;15.80;;;13.80;99.90;;;;;;5062940;28;20039;-90
2022/06/09 04:33:59;;;;;;;37.38;16.52;;;13.70;99.90;;;;;;5061699;28;20047;-88
2022/06/09 04:36:25;;;;;;;41.97;16.25;;;13.70;99.90;;;;;;5095157;28;20047;-91
2022/06/09 04:38:51;;;;;;;38.35;15.25;;;13.70;99.90;;;;;;5077988;28;20525;-89
2022/06/09 04:41:16;;;;;;;32.83;15.80;;;13.70;99.90;;;;;;5112128;28;20050;-91
2022/06/09 04:43:45;;;;;;;37.70;17.58;;;13.80;99.90;;;;;;5061773;28;20055;-89
2022/06/09 04:46:12;;;;;;;37.42;16.27;;;13.70;99.90;;;;;;5095036;28;20083;-90
2022/06/09 04:48:40;;;;;;;34.60;16.35;;;13.80;99.90;;;;;;5112136;28;20048;-90
2022/06/09 04:51:07;;;;;;;29.90;15.68;;;13.80;99.90;;;;;;5094623;28;20506;-89
2022/06/09 04:53:33;;;;;;;36.30;15.05;;;13.80;99.90;;;;;;5079325;28;20101;-90
2022/06/09 04:55:58;;;;;;;29.10;15.63;;;13.80;99.90;;;;;;5069307;28;20044;-90
2022/06/09 04:58:24;;;;;;;36.22;16.30;;;13.90;99.90;;;;;;5080985;28;20048;-89
2022/06/09 05:00:50;;;;;;;31.92;14.27;;;13.80;99.90;;;;;;5094417;28;20052;-90
2022/06/09 05:03:16;;;;;;;32.28;15.48;;;13.80;99.90;;;;;;5077532;28;20040;-92
2022/06/09 05:05:43;;;;;;;31.15;15.23;;;13.90;99.90;;;;;;5111406;28;20118;-88
2022/06/09 05:08:11;;;;;;;29.50;15.07;;;13.90;99.90;;;;;;5060909;28;20083;-89
2022/06/09 05:10:38;;;;;;;30.90;15.60;;;13.90;99.90;;;;;;5094678;27;20063;-90
2022/06/09 05:13:06;;;;;;;32.05;17.45;;;13.90;99.90;;;;;;5060628;28;20498;-90
2022/06/09 05:15:37;;;;;;;34.83;18.50;;;13.90;99.90;;;;;;5094311;28;20593;-89
2022/06/09 05:18:05;;;;;;;37.33;21.50;;;13.90;99.90;;;;;;5094597;28;20503;-89
2022/06/09 05:20:31;;;;;;;35.10;20.38;;;13.90;99.90;;;;;;5060618;28;20044;-89
2022/06/09 05:22:57;;;;;;;39.97;20.35;;;13.80;99.90;;;;;;5094454;27;20450;-90
2022/06/09 05:25:22;;;;;;;43.22;21.48;;;13.90;99.90;;;;;;5093810;28;20548;-89
2022/06/09 05:27:48;;;;;;;44.33;22.60;;;13.90;99.90;;;;;;5077098;28;20043;-88
2022/06/09 05:30:22;;;;;;;39.05;23.15;;;13.90;99.90;;;;;;5093821;28;20051;-89
2022/06/09 05:32:50;;;;;;;;;;;13.90;99.90;;;;;;5077887;28;20051;-90
2022/06/09 05:35:16;;;;;;;42.63;25.42;;;13.90;99.90;;;;;;5094155;28;20272;-90
2022/06/09 05:45:55;;;;;;;;;;;13.80;99.90;;;;;;5082579;28;20056;-88
2022/06/09 05:48:21;;;;;;;48.08;28.08;;;13.80;99.90;;;;;;5093271;28;20053;-87
2022/06/09 05:50:47;;;;;;;41.88;28.10;;;13.80;99.90;;;;;;5110343;28;20050;-91
2022/06/09 05:53:13;;;;;;;39.97;27.75;;;13.80;99.90;;;;;;5060822;28;20066;-88
2022/06/09 05:55:38;;;;;;;46.25;28.13;;;13.80;99.90;;;;;;5093417;27;20040;-91
2022/06/09 05:58:04;;;;;;;42.28;27.23;;;13.80;99.90;;;;;;5093337;28;20483;-90
2022/06/09 06:00:30;;;;;;;41.78;27.15;;;13.80;99.90;;;;;;5110238;28;20085;-90
2022/06/09 06:02:57;;;;;;;41.05;28.55;;;13.90;99.90;;;;;;5076742;28;20043;-89
2022/06/09 06:08:07;;;;;;;;;;;13.90;99.90;;;;;;5114121;28;20091;-91
2022/06/09 06:10:33;;;;;;;46.60;28.23;;;13.10;99.90;;;;;;5082143;28;20414;-90
2022/06/09 06:12:58;;;;;;;44.25;30.05;;;13.90;99.90;;;;;;5088309;28;20082;-91
2022/06/09 06:15:24;;;;;;;55.97;30.98;;;13.90;99.90;;;;;;5111436;28;20027;-90
2022/06/09 06:17:53;;;;;;;46.83;29.00;;;13.90;99.90;;;;;;5111572;28;20419;-90
2022/06/09 06:20:19;;;;;;;49.45;30.45;;;14.00;99.90;;;;;;5109346;28;20085;-89
2022/06/09 06:22:45;;;;;;;51.88;30.40;;;14.10;99.90;;;;;;5102987;28;20051;-90
2022/06/09 06:25:11;;;;;;;43.72;30.30;;;14.20;99.90;;;;;;5082596;28;20054;-89
2022/06/09 06:27:36;;;;;;;46.13;30.15;;;14.30;99.90;;;;;;5096608;28;20370;-90
2022/06/09 06:30:02;;;;;;;47.97;30.23;;;14.40;99.90;;;;;;5095867;28;20051;-90
2022/06/09 06:32:28;;;;;;;49.30;30.52;;;14.50;99.90;;;;;;5077362;28;20081;-89
2022/06/09 06:34:54;;;;;;;50.90;31.48;;;14.50;99.90;;;;;;5094116;28;20258;-94
2022/06/09 06:37:19;;;;;;;43.92;28.60;;;14.70;99.90;;;;;;5077859;28;20059;-93
2022/06/09 06:39:45;;;;;;;42.55;30.13;;;14.80;99.90;;;;;;5060933;28;20060;-91
2022/06/09 06:42:10;;;;;;;42.13;29.73;;;14.90;99.90;;;;;;5111268;28;20035;-92
2022/06/09 06:44:36;;;;;;;39.90;28.42;;;15.00;99.90;;;;;;5093283;28;20045;-91
2022/06/09 06:47:12;;;;;;;42.90;29.08;;;15.00;99.90;;;;;;5101351;28;20046;-92
2022/06/09 06:49:56;;;;;;;39.28;27.77;;;15.00;99.90;;;;;;5084467;28;20405;-93
2022/06/09 06:52:25;;;;;;;35.38;25.85;;;15.40;99.90;;;;;;5091182;28;20123;-91
2022/06/09 06:54:53;;;;;;;31.83;24.52;;;15.60;99.90;;;;;;5073837;28;20044;-90
2022/06/09 06:57:19;;;;;;;30.83;22.70;;;15.80;99.90;;;;;;5059916;28;20061;-91
2022/06/09 06:59:47;;;;;;;30.05;22.85;;;15.80;99.90;;;;;;5079874;28;20047;-92
2022/06/09 07:02:13;;;;;;;26.35;21.38;;;15.80;99.90;;;;;;5082730;28;20044;-90
2022/06/09 07:04:39;;;;;;;26.88;22.05;;;16.30;99.90;;;;;;5086791;28;20127;-94
2022/06/09 07:07:10;;;;;;;24.00;19.95;;;16.70;99.90;;;;;;5073688;28;20105;-94
2022/06/09 07:09:38;;;;;;;21.80;19.60;;;16.90;99.90;;;;;;5086581;28;20083;-93
2022/06/09 07:12:05;;;;;;;20.20;18.10;;;17.10;99.90;;;;;;5069913;28;20064;-87
2022/06/09 07:14:33;;;;;;;19.50;16.85;;;17.30;99.90;;;;;;5095332;28;20498;-92
2022/06/09 07:16:59;;;;;;;17.40;15.63;;;16.80;99.90;;;;;;5061391;28;20411;-90
2022/06/09 07:19:25;;;;;;;15.65;14.07;;;18.00;99.90;;;;;;5112768;28;20604;-91
2022/06/09 07:21:51;;;;;;;16.77;15.25;;;18.10;99.90;;;;;;5067162;28;20083;-94
2022/06/09 07:24:20;;;;;;;17.77;14.43;;;17.50;99.90;;;;;;5065991;28;20208;-92
2022/06/09 07:27:03;;;;;;;16.70;15.10;;;17.40;99.90;;;;;;5057606;28;20040;-92
2022/06/09 07:29:32;;;;;;;16.60;14.80;;;18.00;99.90;;;;;;5061227;28;20403;-91
2022/06/09 07:32:01;;;;;;;15.90;14.23;;;17.00;99.90;;;;;;5087297;28;20096;-91
2022/06/09 07:34:27;;;;;;;14.00;12.10;;;17.50;99.90;;;;;;5052292;28;20058;-91
2022/06/09 07:36:53;;;;;;;14.10;12.55;;;17.70;99.90;;;;;;5078866;28;20131;-90
2022/06/09 07:39:26;;;;;;;13.90;12.07;;;18.10;99.90;;;;;;5078579;28;20061;-91
2022/06/09 07:41:52;;;;;;;13.73;10.20;;;18.00;99.90;;;;;;5084056;28;20039;-90
2022/06/09 07:44:20;;;;;;;12.07;10.85;;;17.70;99.90;;;;;;5068586;28;20127;-90
2022/06/09 07:46:46;;;;;;;10.77;9.68;;;17.80;99.90;;;;;;5091446;28;20108;-92
2022/06/09 07:49:22;;;;;;;11.27;10.18;;;16.40;99.90;;;;;;5070616;28;20081;-91
2022/06/09 07:52:14;;;;;;;11.15;9.20;;;17.70;99.90;;;;;;5089121;28;20044;-94
2022/06/09 07:54:40;;;;;;;8.60;7.53;;;18.50;99.90;;;;;;5089331;28;20444;-89
2022/06/09 07:57:16;;;;;;;8.57;6.80;;;18.80;99.90;;;;;;5097862;28;20035;-91
2022/06/09 07:59:50;;;;;;;8.25;7.03;;;17.90;99.90;;;;;;5061256;28;20074;-91
2022/06/09 08:02:23;;;;;;;9.93;7.22;;;18.00;99.90;;;;;;5062666;28;20048;-92
2022/06/09 08:04:56;;;;;;;9.43;7.70;;;18.00;99.90;;;;;;5074544;28;20114;-92
2022/06/09 08:07:25;;;;;;;9.43;7.28;;;18.30;99.90;;;;;;5075935;28;20748;-95
2022/06/09 08:09:51;;;;;;;6.97;6.35;;;18.30;99.90;;;;;;5082254;28;20531;-89
2022/06/09 08:12:16;;;;;;;7.45;6.25;;;18.40;99.90;;;;;;5095658;28;20052;-88
2022/06/09 08:14:42;;;;;;;5.65;4.80;;;18.90;99.90;;;;;;5097570;28;20056;-93
2022/06/09 08:17:09;;;;;;;4.82;3.90;;;19.10;99.90;;;;;;5113932;28;20039;-90
2022/06/09 08:19:37;;;;;;;4.78;3.47;;;19.60;99.90;;;;;;5060817;28;20391;-94
2022/06/09 08:22:03;;;;;;;6.07;3.58;;;19.60;99.90;;;;;;5061861;28;20047;-89
2022/06/09 08:24:33;;;;;;;6.45;4.22;;;18.00;99.90;;;;;;5085821;28;20502;-89
2022/06/09 08:27:02;;;;;;;6.40;3.70;;;18.50;99.90;;;;;;5093091;28;20051;-88
2022/06/09 08:29:28;;;;;;;6.57;3.67;;;19.40;99.90;;;;;;5104645;28;20036;-89
2022/06/09 08:31:59;;;;;;;5.80;3.20;;;20.00;99.90;;;;;;5092328;28;20042;-87
2022/06/09 08:34:24;;;;;;;4.15;2.40;;;21.20;99.90;;;;;;5093848;28;20047;-90
2022/06/09 08:36:50;;;;;;;2.97;2.70;;;21.10;99.90;;;;;;5074815;28;20045;-91
2022/06/09 08:39:16;;;;;;;6.30;2.50;;;20.50;99.90;;;;;;5093850;28;20421;-86
2022/06/09 08:41:52;;;;;;;5.43;2.92;;;21.00;99.90;;;;;;5059649;28;20368;-90
2022/06/09 08:44:43;;;;;;;3.65;2.03;;;21.40;99.90;;;;;;5111476;28;20043;-90
2022/06/09 08:47:17;;;;;;;4.82;2.20;;;22.00;99.90;;;;;;5073047;28;20067;-92
2022/06/09 08:50:02;;;;;;;7.55;2.15;;;21.70;99.90;;;;;;5066582;28;20073;-91
2022/06/09 08:52:55;;;;;;;4.32;2.10;;;21.30;99.90;;;;;;5092797;28;20040;-90
2022/06/09 08:55:29;;;;;;;4.43;1.63;;;22.20;99.90;;;;;;5079349;28;20048;-94
2022/06/09 08:58:08;;;;;;;5.90;1.77;;;21.80;99.90;;;;;;5093083;28;20134;-92
2022/06/09 09:00:38;;;;;;;2.70;1.42;;;22.30;99.90;;;;;;5110567;28;20046;-93
2022/06/09 09:03:36;;;;;;;2.35;1.35;;;22.80;99.90;;;;;;5095574;28;20047;-93
2022/06/09 09:06:09;;;;;;;5.50;1.70;;;21.90;99.90;;;;;;5083804;28;20131;-93
2022/06/09 09:08:39;;;;;;;4.10;1.60;;;22.50;99.90;;;;;;5096995;28;20044;-93
2022/06/09 09:11:17;;;;;;;3.83;1.60;;;22.30;99.90;;;;;;5077910;28;20051;-92
2022/06/09 09:13:59;;;;;;;3.72;1.40;;;21.80;99.90;;;;;;5088036;28;20052;-93
2022/06/09 09:16:34;;;;;;;4.60;1.65;;;22.50;99.90;;;;;;5086290;28;20051;-91
2022/06/09 09:19:13;;;;;;;3.55;1.50;;;22.50;99.90;;;;;;5096984;28;20044;-92
2022/06/09 09:22:00;;;;;;;4.15;1.27;;;22.20;99.90;;;;;;5101134;28;20083;-94
2022/06/09 09:24:48;;;;;;;4.43;1.45;;;21.60;99.90;;;;;;5082817;28;20048;-89
2022/06/09 09:27:33;;;;;;;3.58;1.63;;;22.00;99.90;;;;;;5092358;28;20055;-90
2022/06/09 09:30:14;;;;;;;3.85;1.20;;;22.70;99.90;;;;;;5092087;28;20096;-90
2022/06/09 09:32:42;;;;;;;4.22;1.30;;;21.50;99.90;;;;;;5108526;28;20043;-90
2022/06/09 09:35:14;;;;;;;4.50;1.33;;;21.10;99.90;;;;;;5075733;28;20414;-90
2022/06/09 09:37:45;;;;;;;4.47;1.55;;;20.70;99.90;;;;;;5075461;28;20139;-89
2022/06/09 09:40:19;;;;;;;5.20;1.60;;;21.30;99.90;;;;;;5087840;28;20027;-91
2022/06/09 09:42:45;;;;;;;4.65;1.20;;;21.00;99.90;;;;;;5114890;28;20060;-91
2022/06/09 09:45:19;;;;;;;4.53;1.45;;;21.40;99.90;;;;;;5112150;28;20126;-90
2022/06/09 09:47:54;;;;;;;4.20;1.20;;;21.70;99.90;;;;;;5114768;28;20043;-92
2022/06/09 09:50:36;;;;;;;4.97;1.50;;;22.80;99.90;;;;;;5094537;28;20500;-91
2022/06/09 09:53:20;;;;;;;3.80;1.23;;;23.00;99.90;;;;;;5090676;28;20051;-92
2022/06/09 09:55:52;;;;;;;4.57;1.23;;;22.60;99.90;;;;;;5073430;28;20510;-93
2022/06/09 09:58:34;;;;;;;4.75;1.17;;;23.10;99.90;;;;;;5101172;28;20047;-92
2022/06/09 10:01:25;;;;;;;4.95;1.10;;;22.50;99.90;;;;;;5078546;28;20399;-88
2022/06/09 10:09:51;;;;;;;3.13;1.00;;;22.00;99.90;;;;;;5103278;28;20421;-90
2022/06/09 10:12:29;;;;;;;10.98;1.67;;;22.10;99.90;;;;;;5092895;28;20078;-92
2022/06/09 10:15:01;;;;;;;5.72;1.65;;;21.90;99.90;;;;;;5093972;28;20047;-92
2022/06/09 10:17:43;;;;;;;;;;;;;;;;;;;;;
2022/06/09 10:20:48;;;;;;;2.85;1.20;;;22.50;99.90;;;;;;5101389;28;20062;-96
2022/06/09 10:23:27;;;;;;;5.32;1.10;;;22.90;99.90;;;;;;5082907;28;20051;-95
2022/06/09 10:26:01;;;;;;;2.72;1.05;;;22.70;99.90;;;;;;5085019;28;20078;-92
2022/06/09 10:29:00;;;;;;;4.53;1.38;;;23.30;99.90;;;;;;5102894;28;20101;-95
2022/06/09 10:31:54;;;;;;;5.15;1.40;;;22.60;99.90;;;;;;5075956;28;20036;-93
2022/06/09 10:34:56;;;;;;;3.03;1.33;;;21.60;99.90;;;;;;5079655;28;20083;-95
2022/06/09 10:41:14;;;;;;;4.35;1.70;;;23.40;99.90;;;;;;5071511;28;20126;-96
2022/06/09 10:44:13;;;;;;;4.53;1.23;;;22.60;99.90;;;;;;5067131;28;20040;-93
2022/06/09 10:55:14;;;;;;;4.05;1.30;;;23.60;99.90;;;;;;5064505;28;20446;-93
2022/06/09 10:55:56;;;;;;;4.57;1.20;;;23.30;99.90;;;;;;5115857;28;20342;-95
2022/06/09 10:58:37;;;;;;;2.97;1.10;;;23.40;99.90;;;;;;5087747;28;20411;-94
2022/06/09 11:01:08;;;;;;;4.38;1.88;;;23.60;99.90;;;;;;5079776;28;20127;-94
2022/06/09 11:07:00;;;;;;;3.30;0.98;;;23.20;99.90;;;;;;5085066;28;20052;-95
2022/06/09 11:09:52;;;;;;;3.67;1.33;;;23.20;99.90;;;;;;5108327;28;20078;-94
2022/06/09 11:12:41;;;;;;;3.33;1.33;;;23.00;99.90;;;;;;5085371;28;20507;-96
2022/06/09 11:15:19;;;;;;;5.22;1.60;;;23.10;99.90;;;;;;5089876;28;20044;-95
2022/06/09 11:18:11;;;;;;;3.80;1.33;;;22.90;99.90;;;;;;5075630;28;20044;-96
2022/06/09 11:20:46;;;;;;;2.85;1.20;;;21.50;99.90;;;;;;5073680;28;20099;-95
2022/06/09 11:23:21;;;;;;;5.20;1.13;;;22.00;99.90;;;;;;5091801;28;20040;-95
2022/06/09 11:25:56;;;;;;;3.38;0.90;;;22.20;99.90;;;;;;5078050;28;20079;-95
2022/06/09 11:28:53;;;;;;;2.85;1.10;;;22.60;99.90;;;;;;5091673;28;20040;-96
2022/06/09 11:31:56;;;;;;;6.47;1.48;;;22.40;99.90;;;;;;5073802;28;20083;-93
2022/06/09 11:34:40;;;;;;;9.85;1.70;;;22.00;99.90;;;;;;5103217;28;20055;-94
2022/06/09 11:37:12;;;;;;;7.00;1.05;;;21.50;99.90;;;;;;5102746;28;20059;-94
2022/06/09 11:39:43;;;;;;;3.60;1.00;;;21.50;99.90;;;;;;5087997;28;20059;-93
2022/06/09 11:42:30;;;;;;;2.90;1.00;;;20.90;99.90;;;;;;5103942;28;20040;-94
2022/06/09 11:45:01;;;;;;;3.15;1.00;;;21.90;99.90;;;;;;5103063;28;20058;-95
2022/06/09 11:47:30;;;;;;;3.28;1.10;;;21.90;99.90;;;;;;5089180;28;20048;-94
2022/06/09 11:50:07;;;;;;;5.03;1.40;;;22.00;99.90;;;;;;5087664;28;20067;-92
2022/06/09 11:52:41;;;;;;;3.15;1.13;;;21.60;99.90;;;;;;5090669;28;20082;-93
2022/06/09 11:58:40;;;;;;;5.15;1.45;;;22.40;99.90;;;;;;5104142;28;20056;-95
2022/06/09 12:01:26;;;;;;;;;;;21.00;99.90;;;;;;5113829;28;20449;-95
2022/06/09 12:04:37;;;;;;;3.42;1.00;;;21.10;99.90;;;;;;5106991;28;20405;-95
2022/06/09 12:07:26;;;;;;;3.90;1.10;;;21.60;99.90;;;;;;5103605;28;20061;-96
2022/06/09 12:10:02;;;;;;;4.30;1.20;;;21.30;99.90;;;;;;5086687;28;20051;-94
2022/06/09 12:12:41;;;;;;;5.15;1.20;;;21.60;99.90;;;;;;5103215;28;20051;-89
2022/06/09 12:15:19;;;;;;;4.15;1.23;;;21.60;99.90;;;;;;5070310;28;20043;-96
2022/06/09 12:18:07;;;;;;;3.17;1.17;;;21.20;99.90;;;;;;5101607;28;20124;-95
2022/06/09 12:21:09;;;;;;;5.18;1.08;;;21.80;99.90;;;;;;5078928;28;20032;-96
2022/06/09 12:24:02;;;;;;;;;;;;;;;;;;;;;
2022/06/09 12:27:21;;;;;;;3.67;1.77;;;21.90;99.90;;;;;;5111683;28;20043;-95
2022/06/09 12:30:35;;;;;;;4.07;1.02;;;21.90;99.90;;;;;;5102829;28;20048;-94
2022/06/09 12:33:25;;;;;;;3.72;1.23;;;21.80;99.90;;;;;;5095449;28;20510;-94
2022/06/09 12:36:02;;;;;;;3.17;1.25;;;21.60;99.90;;;;;;5079720;28;20055;-93
2022/06/09 12:41:43;;;;;;;2.25;1.23;;;21.10;99.90;;;;;;5083591;28;20103;-94
2022/06/09 12:44:24;;;;;;;5.20;1.10;;;21.30;99.90;;;;;;5065711;28;20096;-94
2022/06/09 12:47:19;;;;;;;4.13;1.10;;;21.20;99.90;;;;;;5101679;28;20092;-95
2022/06/09 12:49:49;;;;;;;5.30;1.25;;;21.40;99.90;;;;;;5086932;28;20048;-95
2022/06/09 12:52:24;;;;;;;6.35;1.60;;;21.10;99.90;;;;;;5070584;28;20069;-95
2022/06/09 12:55:04;;;;;;;3.17;1.25;;;21.10;99.90;;;;;;5099961;28;20044;-92
2022/06/09 12:57:34;;;;;;;3.38;1.25;;;21.50;99.90;;;;;;5096408;27;20128;-94
2022/06/09 13:00:06;;;;;;;5.15;1.30;;;21.20;99.90;;;;;;5064285;28;20047;-93
2022/06/09 13:02:47;;;;;;;4.65;1.35;;;20.40;99.90;;;;;;5097543;28;20348;-94
2022/06/09 13:05:33;;;;;;;3.75;1.33;;;21.10;99.90;;;;;;5103339;28;20052;-92
2022/06/09 13:08:32;;;;;;;5.93;1.60;;;21.20;99.90;;;;;;5080453;28;20491;-92
2022/06/09 13:11:01;;;;;;;6.25;1.10;;;20.70;99.90;;;;;;5089463;28;20047;-90
2022/06/09 13:13:48;;;;;;;3.30;1.20;;;21.00;99.90;;;;;;5077657;28;20082;-92
2022/06/09 13:16:24;;;;;;;3.25;1.13;;;21.40;99.90;;;;;;5063827;28;20054;-93
2022/06/09 13:19:04;;;;;;;3.15;1.30;;;20.90;99.90;;;;;;5061777;28;20513;-91
2022/06/09 13:21:40;;;;;;;7.45;1.50;;;21.00;99.90;;;;;;5089616;28;20054;-92
2022/06/09 13:24:16;;;;;;;3.78;1.70;;;19.90;99.90;;;;;;5086600;28;20058;-91
2022/06/09 13:26:50;;;;;;;4.63;1.55;;;20.40;99.90;;;;;;5084496;28;20051;-91
2022/06/09 13:29:28;;;;;;;4.28;1.35;;;20.70;99.90;;;;;;5080991;28;20052;-92
2022/06/09 13:32:19;;;;;;;5.18;1.45;;;20.30;99.90;;;;;;5078466;28;20063;-91
2022/06/09 13:34:49;;;;;;;4.22;1.75;;;19.90;99.90;;;;;;5087829;28;20024;-93
2022/06/09 13:37:18;;;;;;;5.32;1.58;;;19.90;99.90;;;;;;5083167;28;20063;-88
2022/06/09 13:40:00;;;;;;;7.03;1.60;;;20.20;99.90;;;;;;5116854;28;20067;-93
2022/06/09 13:42:37;;;;;;;5.50;1.58;;;20.40;99.90;;;;;;5085943;28;20570;-94